< Typhoon 197713 1977 Season Typhoon 197715 >
Typhoon 197714 (GILDA)
General InformationTrack Information on Google MapsDetailed Wind Information || Disaster Info.ResourceGoogle EarthGE AnimationAtom FeedGeoJSON
Detalied Best Track (Time Zone = UTC)
Year Month Day Hour Lat. Long. Pressure (hPa) Wind (kt) Class Image Chart
1977 10 3 00 16.5 156.0 1000 0 2 -- Chart
1977 10 3 06 17.0 156.4 996 0 2 -- Chart
1977 10 3 12 17.5 156.5 996 0 2 -- Chart
1977 10 3 18 18.0 156.2 994 0 2 -- Chart
1977 10 4 00 18.0 155.8 990 0 2 -- Chart
1977 10 4 06 18.5 155.0 985 40 3 -- Chart
1977 10 4 12 19.3 154.3 985 40 3 -- Chart
1977 10 4 18 20.1 153.6 980 45 3 -- Chart
1977 10 5 00 20.5 152.7 975 45 3 -- Chart
1977 10 5 06 21.1 151.9 970 65 5 -- Chart
1977 10 5 12 21.7 151.1 975 65 5 -- Chart
1977 10 5 18 22.3 150.2 980 65 5 -- Chart
1977 10 6 00 23.0 149.7 980 65 5 -- Chart
1977 10 6 06 23.7 149.0 980 55 4 -- Chart
1977 10 6 12 24.2 148.3 980 50 4 -- Chart
1977 10 6 18 24.8 147.8 975 55 4 -- Chart
1977 10 7 00 25.7 147.6 975 60 4 -- Chart
1977 10 7 06 27.0 147.3 975 60 4 -- Chart
1977 10 7 12 28.2 147.1 975 60 4 -- Chart
1977 10 7 18 29.5 147.0 970 60 4 -- Chart
1977 10 8 00 30.8 147.5 970 60 4 -- Chart
1977 10 8 06 32.1 148.2 965 65 5 -- Chart
1977 10 8 12 33.4 149.4 965 65 5 -- Chart
1977 10 8 18 34.6 150.5 970 60 4 -- Chart
1977 10 9 00 35.8 151.7 970 60 4 -- Chart
1977 10 9 06 36.8 153.2 975 55 4 -- Chart
1977 10 9 12 38.0 155.6 975 55 4 -- Chart
1977 10 9 18 39.5 158.5 980 45 3 -- Chart
1977 10 10 00 41.0 161.9 985 0 6 -- Chart
1977 10 10 06 42.0 165.5 988 0 6 -- Chart
1977 10 10 12 42.5 168.3 988 0 6 -- Chart
1977 10 10 18 42.9 171.1 988 0 6 -- Chart
1977 10 11 00 43.0 174.0 988 0 6 -- Chart
1977 10 11 06 43.0 177.0 988 0 6 -- Chart
1977 10 11 12 43.0 180.0 988 0 6 -- Chart
Japan Meteorological Agency Best Track Data | Correction Date : 1992-10-21
< Typhoon 197713 1977 Season Typhoon 197715 >

Help